sensor_id;sensor_type;location;lat;lon;timestamp;P1;durP1;ratioP1;P2;durP2;ratioP2
72761;SDS011;60886;55.034;73.150;2022-11-20T00:01:45;8.23;;;1.50;;
72761;SDS011;60886;55.034;73.150;2022-11-20T00:04:13;7.05;;;2.30;;
72761;SDS011;60886;55.034;73.150;2022-11-20T00:06:44;7.30;;;1.80;;
72761;SDS011;60886;55.034;73.150;2022-11-20T00:09:10;6.93;;;2.00;;
72761;SDS011;60886;55.034;73.150;2022-11-20T00:11:37;5.30;;;1.55;;
72761;SDS011;60886;55.034;73.150;2022-11-20T00:14:03;7.18;;;1.50;;
72761;SDS011;60886;55.034;73.150;2022-11-20T00:16:31;7.38;;;2.45;;
72761;SDS011;60886;55.034;73.150;2022-11-20T00:18:58;9.50;;;2.38;;
72761;SDS011;60886;55.034;73.150;2022-11-20T00:21:26;9.30;;;1.67;;
72761;SDS011;60886;55.034;73.150;2022-11-20T00:23:55;7.25;;;1.80;;
72761;SDS011;60886;55.034;73.150;2022-11-20T00:26:23;9.73;;;1.70;;
72761;SDS011;60886;55.034;73.150;2022-11-20T00:29:00;6.93;;;2.22;;
72761;SDS011;60886;55.034;73.150;2022-11-20T00:31:32;7.38;;;2.00;;
72761;SDS011;60886;55.034;73.150;2022-11-20T00:33:59;6.57;;;1.90;;
72761;SDS011;60886;55.034;73.150;2022-11-20T00:36:32;6.20;;;1.95;;
72761;SDS011;60886;55.034;73.150;2022-11-20T00:39:01;7.43;;;1.65;;
72761;SDS011;60886;55.034;73.150;2022-11-20T00:41:29;4.82;;;1.58;;
72761;SDS011;60886;55.034;73.150;2022-11-20T00:43:57;8.93;;;2.00;;
72761;SDS011;60886;55.034;73.150;2022-11-20T00:46:34;8.37;;;1.93;;
72761;SDS011;60886;55.034;73.150;2022-11-20T00:49:02;4.95;;;1.85;;
72761;SDS011;60886;55.034;73.150;2022-11-20T00:51:40;8.00;;;2.22;;
72761;SDS011;60886;55.034;73.150;2022-11-20T00:54:08;9.20;;;2.28;;
72761;SDS011;60886;55.034;73.150;2022-11-20T00:56:35;4.80;;;1.85;;
72761;SDS011;60886;55.034;73.150;2022-11-20T00:59:03;5.97;;;1.73;;
72761;SDS011;60886;55.034;73.150;2022-11-20T01:01:37;7.45;;;1.80;;
72761;SDS011;60886;55.034;73.150;2022-11-20T01:04:05;6.15;;;1.88;;
72761;SDS011;60886;55.034;73.150;2022-11-20T01:06:34;7.10;;;1.75;;
72761;SDS011;60886;55.034;73.150;2022-11-20T01:09:05;6.50;;;1.58;;
72761;SDS011;60886;55.034;73.150;2022-11-20T01:11:38;6.53;;;2.57;;
72761;SDS011;60886;55.034;73.150;2022-11-20T01:14:10;9.32;;;2.22;;
72761;SDS011;60886;55.034;73.150;2022-11-20T01:16:50;4.82;;;1.63;;
72761;SDS011;60886;55.034;73.150;2022-11-20T01:19:20;6.35;;;2.00;;
72761;SDS011;60886;55.034;73.150;2022-11-20T01:21:49;7.45;;;2.40;;
72761;SDS011;60886;55.034;73.150;2022-11-20T01:24:19;5.33;;;1.50;;
72761;SDS011;60886;55.034;73.150;2022-11-20T01:26:49;6.55;;;1.98;;
72761;SDS011;60886;55.034;73.150;2022-11-20T01:29:22;9.27;;;1.83;;
72761;SDS011;60886;55.034;73.150;2022-11-20T01:31:54;5.50;;;1.65;;
72761;SDS011;60886;55.034;73.150;2022-11-20T01:34:22;7.57;;;2.17;;
72761;SDS011;60886;55.034;73.150;2022-11-20T01:36:49;7.57;;;1.90;;
72761;SDS011;60886;55.034;73.150;2022-11-20T01:39:24;9.27;;;2.50;;
72761;SDS011;60886;55.034;73.150;2022-11-20T01:41:55;6.28;;;1.80;;
72761;SDS011;60886;55.034;73.150;2022-11-20T01:50:26;8.90;;;2.43;;
72761;SDS011;60886;55.034;73.150;2022-11-20T01:53:02;3.85;;;1.75;;
72761;SDS011;60886;55.034;73.150;2022-11-20T01:55:39;5.07;;;1.65;;
72761;SDS011;60886;55.034;73.150;2022-11-20T01:58:11;8.52;;;1.70;;
72761;SDS011;60886;55.034;73.150;2022-11-20T02:00:38;6.68;;;1.85;;
72761;SDS011;60886;55.034;73.150;2022-11-20T02:03:06;4.97;;;1.60;;
72761;SDS011;60886;55.034;73.150;2022-11-20T02:05:43;5.70;;;1.50;;
72761;SDS011;60886;55.034;73.150;2022-11-20T02:08:22;5.53;;;1.55;;
72761;SDS011;60886;55.034;73.150;2022-11-20T02:11:01;4.40;;;1.35;;
72761;SDS011;60886;55.034;73.150;2022-11-20T02:13:30;4.63;;;1.52;;
72761;SDS011;60886;55.034;73.150;2022-11-20T02:16:23;7.33;;;2.30;;
72761;SDS011;60886;55.034;73.150;2022-11-20T02:18:53;6.57;;;1.88;;
72761;SDS011;60886;55.034;73.150;2022-11-20T02:21:37;9.65;;;2.08;;
72761;SDS011;60886;55.034;73.150;2022-11-20T02:24:19;4.95;;;1.65;;
72761;SDS011;60886;55.034;73.150;2022-11-20T02:32:31;4.93;;;1.40;;
72761;SDS011;60886;55.034;73.150;2022-11-20T02:35:35;5.82;;;1.52;;
72761;SDS011;60886;55.034;73.150;2022-11-20T02:37:57;5.32;;;1.50;;
72761;SDS011;60886;55.034;73.150;2022-11-20T02:40:26;6.38;;;1.83;;
72761;SDS011;60886;55.034;73.150;2022-11-20T02:42:58;6.43;;;1.77;;
72761;SDS011;60886;55.034;73.150;2022-11-20T02:45:25;10.07;;;2.85;;
72761;SDS011;60886;55.034;73.150;2022-11-20T02:47:51;7.70;;;2.50;;
72761;SDS011;60886;55.034;73.150;2022-11-20T02:50:18;9.43;;;2.30;;
72761;SDS011;60886;55.034;73.150;2022-11-20T02:52:48;10.73;;;2.67;;
72761;SDS011;60886;55.034;73.150;2022-11-20T02:55:15;8.47;;;2.30;;
72761;SDS011;60886;55.034;73.150;2022-11-20T02:57:42;10.45;;;3.75;;
72761;SDS011;60886;55.034;73.150;2022-11-20T03:00:09;14.57;;;3.20;;
72761;SDS011;60886;55.034;73.150;2022-11-20T03:02:37;12.57;;;3.25;;
72761;SDS011;60886;55.034;73.150;2022-11-20T03:05:17;10.80;;;3.60;;
72761;SDS011;60886;55.034;73.150;2022-11-20T03:07:54;11.27;;;4.00;;
72761;SDS011;60886;55.034;73.150;2022-11-20T03:10:21;21.08;;;4.75;;
72761;SDS011;60886;55.034;73.150;2022-11-20T03:12:52;13.88;;;4.53;;
72761;SDS011;60886;55.034;73.150;2022-11-20T03:15:29;11.27;;;3.42;;
72761;SDS011;60886;55.034;73.150;2022-11-20T03:17:57;16.27;;;4.63;;
72761;SDS011;60886;55.034;73.150;2022-11-20T03:20:27;17.27;;;4.60;;
72761;SDS011;60886;55.034;73.150;2022-11-20T03:23:04;16.80;;;4.68;;
72761;SDS011;60886;55.034;73.150;2022-11-20T03:25:31;20.70;;;5.50;;
72761;SDS011;60886;55.034;73.150;2022-11-20T03:27:58;10.50;;;3.53;;
72761;SDS011;60886;55.034;73.150;2022-11-20T03:30:25;11.60;;;2.88;;
72761;SDS011;60886;55.034;73.150;2022-11-20T03:32:52;11.97;;;3.20;;
72761;SDS011;60886;55.034;73.150;2022-11-20T03:35:21;10.85;;;2.65;;
72761;SDS011;60886;55.034;73.150;2022-11-20T03:37:50;11.90;;;3.13;;
72761;SDS011;60886;55.034;73.150;2022-11-20T03:40:17;8.07;;;2.22;;
72761;SDS011;60886;55.034;73.150;2022-11-20T03:42:43;13.55;;;3.55;;
72761;SDS011;60886;55.034;73.150;2022-11-20T03:45:15;8.33;;;2.27;;
72761;SDS011;60886;55.034;73.150;2022-11-20T03:47:55;7.95;;;2.67;;
72761;SDS011;60886;55.034;73.150;2022-11-20T03:50:32;10.88;;;3.08;;
72761;SDS011;60886;55.034;73.150;2022-11-20T03:53:09;7.78;;;1.58;;
72761;SDS011;60886;55.034;73.150;2022-11-20T03:55:50;10.00;;;3.80;;
72761;SDS011;60886;55.034;73.150;2022-11-20T03:58:18;10.20;;;3.80;;
72761;SDS011;60886;55.034;73.150;2022-11-20T04:00:50;9.73;;;2.65;;
72761;SDS011;60886;55.034;73.150;2022-11-20T04:03:18;7.88;;;2.38;;
72761;SDS011;60886;55.034;73.150;2022-11-20T04:06:00;10.02;;;2.70;;
72761;SDS011;60886;55.034;73.150;2022-11-20T04:08:30;6.05;;;1.83;;
72761;SDS011;60886;55.034;73.150;2022-11-20T04:11:10;9.93;;;2.97;;
72761;SDS011;60886;55.034;73.150;2022-11-20T04:13:46;6.35;;;2.08;;
72761;SDS011;60886;55.034;73.150;2022-11-20T04:16:14;10.75;;;2.85;;
72761;SDS011;60886;55.034;73.150;2022-11-20T04:18:47;9.30;;;2.78;;
72761;SDS011;60886;55.034;73.150;2022-11-20T04:21:26;7.55;;;1.90;;
72761;SDS011;60886;55.034;73.150;2022-11-20T04:23:59;11.83;;;2.90;;
72761;SDS011;60886;55.034;73.150;2022-11-20T04:26:30;12.75;;;2.85;;
72761;SDS011;60886;55.034;73.150;2022-11-20T04:28:58;7.65;;;2.88;;
72761;SDS011;60886;55.034;73.150;2022-11-20T04:31:27;10.40;;;3.15;;
72761;SDS011;60886;55.034;73.150;2022-11-20T04:33:54;6.72;;;1.80;;
72761;SDS011;60886;55.034;73.150;2022-11-20T04:36:26;10.77;;;2.33;;
72761;SDS011;60886;55.034;73.150;2022-11-20T04:39:00;9.27;;;2.35;;
72761;SDS011;60886;55.034;73.150;2022-11-20T04:41:31;9.20;;;2.30;;
72761;SDS011;60886;55.034;73.150;2022-11-20T04:44:00;9.05;;;2.42;;
72761;SDS011;60886;55.034;73.150;2022-11-20T04:46:31;9.18;;;2.63;;
72761;SDS011;60886;55.034;73.150;2022-11-20T04:49:06;11.87;;;2.10;;
72761;SDS011;60886;55.034;73.150;2022-11-20T04:51:33;12.40;;;2.95;;
72761;SDS011;60886;55.034;73.150;2022-11-20T04:54:04;12.63;;;2.83;;
72761;SDS011;60886;55.034;73.150;2022-11-20T04:56:31;8.18;;;2.30;;
72761;SDS011;60886;55.034;73.150;2022-11-20T04:59:02;13.40;;;3.35;;
72761;SDS011;60886;55.034;73.150;2022-11-20T05:01:29;7.53;;;2.30;;
72761;SDS011;60886;55.034;73.150;2022-11-20T05:04:02;6.03;;;1.50;;
72761;SDS011;60886;55.034;73.150;2022-11-20T05:06:30;7.70;;;2.00;;
72761;SDS011;60886;55.034;73.150;2022-11-20T05:08:58;8.77;;;1.80;;
72761;SDS011;60886;55.034;73.150;2022-11-20T05:11:24;6.25;;;1.60;;
72761;SDS011;60886;55.034;73.150;2022-11-20T05:13:52;10.80;;;2.40;;
72761;SDS011;60886;55.034;73.150;2022-11-20T05:16:22;10.40;;;2.70;;
72761;SDS011;60886;55.034;73.150;2022-11-20T05:18:50;12.25;;;2.38;;
72761;SDS011;60886;55.034;73.150;2022-11-20T05:21:21;7.82;;;2.08;;
72761;SDS011;60886;55.034;73.150;2022-11-20T05:23:49;6.53;;;1.60;;
72761;SDS011;60886;55.034;73.150;2022-11-20T05:26:25;11.47;;;2.20;;
72761;SDS011;60886;55.034;73.150;2022-11-20T05:28:55;9.88;;;2.10;;
72761;SDS011;60886;55.034;73.150;2022-11-20T05:31:22;6.80;;;1.80;;
72761;SDS011;60886;55.034;73.150;2022-11-20T05:33:50;8.30;;;2.33;;
72761;SDS011;60886;55.034;73.150;2022-11-20T05:36:16;9.38;;;1.83;;
72761;SDS011;60886;55.034;73.150;2022-11-20T05:38:43;11.13;;;1.73;;
72761;SDS011;60886;55.034;73.150;2022-11-20T05:41:14;7.50;;;1.90;;
72761;SDS011;60886;55.034;73.150;2022-11-20T05:43:49;7.75;;;1.50;;
72761;SDS011;60886;55.034;73.150;2022-11-20T05:46:17;7.97;;;1.83;;
72761;SDS011;60886;55.034;73.150;2022-11-20T05:48:50;7.82;;;2.03;;
72761;SDS011;60886;55.034;73.150;2022-11-20T05:51:18;11.83;;;2.07;;
72761;SDS011;60886;55.034;73.150;2022-11-20T05:53:45;9.18;;;2.03;;
72761;SDS011;60886;55.034;73.150;2022-11-20T05:56:17;7.43;;;2.00;;
72761;SDS011;60886;55.034;73.150;2022-11-20T05:58:45;9.88;;;2.75;;
72761;SDS011;60886;55.034;73.150;2022-11-20T06:01:17;14.07;;;2.65;;
72761;SDS011;60886;55.034;73.150;2022-11-20T06:03:45;10.10;;;2.40;;
72761;SDS011;60886;55.034;73.150;2022-11-20T06:06:14;6.82;;;2.15;;
72761;SDS011;60886;55.034;73.150;2022-11-20T06:08:49;7.13;;;2.15;;
72761;SDS011;60886;55.034;73.150;2022-11-20T06:11:15;9.75;;;2.25;;
72761;SDS011;60886;55.034;73.150;2022-11-20T06:13:43;6.10;;;1.50;;
72761;SDS011;60886;55.034;73.150;2022-11-20T06:16:17;7.00;;;1.70;;
72761;SDS011;60886;55.034;73.150;2022-11-20T06:18:46;5.30;;;1.40;;
72761;SDS011;60886;55.034;73.150;2022-11-20T06:21:14;8.02;;;1.77;;
72761;SDS011;60886;55.034;73.150;2022-11-20T06:23:42;9.98;;;2.25;;
72761;SDS011;60886;55.034;73.150;2022-11-20T06:26:10;6.75;;;1.60;;
72761;SDS011;60886;55.034;73.150;2022-11-20T06:28:39;4.73;;;1.23;;
72761;SDS011;60886;55.034;73.150;2022-11-20T06:31:07;7.25;;;1.40;;
72761;SDS011;60886;55.034;73.150;2022-11-20T06:33:35;5.88;;;1.48;;
72761;SDS011;60886;55.034;73.150;2022-11-20T06:36:13;6.97;;;1.52;;
72761;SDS011;60886;55.034;73.150;2022-11-20T06:38:41;8.07;;;1.88;;
72761;SDS011;60886;55.034;73.150;2022-11-20T06:41:15;6.13;;;1.50;;
72761;SDS011;60886;55.034;73.150;2022-11-20T06:43:44;6.20;;;1.55;;
72761;SDS011;60886;55.034;73.150;2022-11-20T06:46:11;5.68;;;1.20;;
72761;SDS011;60886;55.034;73.150;2022-11-20T06:48:39;6.00;;;1.23;;
72761;SDS011;60886;55.034;73.150;2022-11-20T06:51:07;6.97;;;1.77;;
72761;SDS011;60886;55.034;73.150;2022-11-20T06:53:37;5.87;;;1.30;;
72761;SDS011;60886;55.034;73.150;2022-11-20T06:56:04;7.68;;;2.08;;
72761;SDS011;60886;55.034;73.150;2022-11-20T06:58:40;4.20;;;1.08;;
72761;SDS011;60886;55.034;73.150;2022-11-20T07:01:11;6.60;;;1.80;;
72761;SDS011;60886;55.034;73.150;2022-11-20T07:03:48;7.75;;;1.80;;
72761;SDS011;60886;55.034;73.150;2022-11-20T07:06:16;7.47;;;1.53;;
72761;SDS011;60886;55.034;73.150;2022-11-20T07:08:43;5.85;;;1.83;;
72761;SDS011;60886;55.034;73.150;2022-11-20T07:11:11;8.13;;;1.77;;
72761;SDS011;60886;55.034;73.150;2022-11-20T07:13:39;7.30;;;1.88;;
72761;SDS011;60886;55.034;73.150;2022-11-20T07:16:06;7.68;;;1.90;;
72761;SDS011;60886;55.034;73.150;2022-11-20T07:18:33;6.17;;;1.80;;
72761;SDS011;60886;55.034;73.150;2022-11-20T07:21:03;8.95;;;2.20;;
72761;SDS011;60886;55.034;73.150;2022-11-20T07:23:30;6.93;;;1.65;;
72761;SDS011;60886;55.034;73.150;2022-11-20T07:25:57;9.15;;;2.20;;
72761;SDS011;60886;55.034;73.150;2022-11-20T07:28:32;7.20;;;2.17;;
72761;SDS011;60886;55.034;73.150;2022-11-20T07:30:59;8.63;;;2.00;;
72761;SDS011;60886;55.034;73.150;2022-11-20T07:33:32;5.55;;;1.55;;
72761;SDS011;60886;55.034;73.150;2022-11-20T07:36:05;5.82;;;1.25;;
72761;SDS011;60886;55.034;73.150;2022-11-20T07:38:37;6.25;;;1.15;;
72761;SDS011;60886;55.034;73.150;2022-11-20T07:41:05;10.10;;;1.80;;
72761;SDS011;60886;55.034;73.150;2022-11-20T07:43:32;6.60;;;1.50;;
72761;SDS011;60886;55.034;73.150;2022-11-20T07:45:59;7.28;;;1.73;;
72761;SDS011;60886;55.034;73.150;2022-11-20T07:48:25;7.78;;;1.50;;
72761;SDS011;60886;55.034;73.150;2022-11-20T07:50:55;7.00;;;1.50;;
72761;SDS011;60886;55.034;73.150;2022-11-20T07:53:22;9.07;;;1.88;;
72761;SDS011;60886;55.034;73.150;2022-11-20T07:55:55;7.23;;;2.00;;
72761;SDS011;60886;55.034;73.150;2022-11-20T07:58:24;8.35;;;1.80;;
72761;SDS011;60886;55.034;73.150;2022-11-20T08:00:51;6.45;;;1.70;;
72761;SDS011;60886;55.034;73.150;2022-11-20T08:03:17;8.68;;;1.60;;
72761;SDS011;60886;55.034;73.150;2022-11-20T08:05:43;10.52;;;2.10;;
72761;SDS011;60886;55.034;73.150;2022-11-20T08:08:10;8.30;;;1.57;;
72761;SDS011;60886;55.034;73.150;2022-11-20T08:10:36;6.15;;;1.80;;
72761;SDS011;60886;55.034;73.150;2022-11-20T08:13:08;7.47;;;1.90;;
72761;SDS011;60886;55.034;73.150;2022-11-20T08:15:53;7.85;;;1.98;;
72761;SDS011;60886;55.034;73.150;2022-11-20T08:18:19;8.93;;;1.67;;
72761;SDS011;60886;55.034;73.150;2022-11-20T08:20:46;6.27;;;1.30;;
72761;SDS011;60886;55.034;73.150;2022-11-20T08:23:12;5.13;;;1.42;;
72761;SDS011;60886;55.034;73.150;2022-11-20T08:25:39;6.78;;;1.70;;
72761;SDS011;60886;55.034;73.150;2022-11-20T08:28:06;6.65;;;1.65;;
72761;SDS011;60886;55.034;73.150;2022-11-20T08:30:44;7.95;;;1.83;;
72761;SDS011;60886;55.034;73.150;2022-11-20T08:33:11;9.77;;;2.00;;
72761;SDS011;60886;55.034;73.150;2022-11-20T08:35:37;9.05;;;1.65;;
72761;SDS011;60886;55.034;73.150;2022-11-20T08:38:11;8.18;;;1.52;;
72761;SDS011;60886;55.034;73.150;2022-11-20T08:40:39;6.68;;;1.80;;
72761;SDS011;60886;55.034;73.150;2022-11-20T08:43:05;12.48;;;2.17;;
72761;SDS011;60886;55.034;73.150;2022-11-20T08:45:32;10.43;;;2.80;;
72761;SDS011;60886;55.034;73.150;2022-11-20T08:48:02;11.77;;;2.60;;
72761;SDS011;60886;55.034;73.150;2022-11-20T08:50:30;11.48;;;2.50;;
72761;SDS011;60886;55.034;73.150;2022-11-20T08:53:04;6.95;;;1.65;;
72761;SDS011;60886;55.034;73.150;2022-11-20T08:55:30;12.70;;;2.63;;
72761;SDS011;60886;55.034;73.150;2022-11-20T08:57:57;10.93;;;2.10;;
72761;SDS011;60886;55.034;73.150;2022-11-20T09:00:23;7.72;;;1.65;;
72761;SDS011;60886;55.034;73.150;2022-11-20T09:02:51;12.05;;;2.03;;
72761;SDS011;60886;55.034;73.150;2022-11-20T09:05:18;10.02;;;2.13;;
72761;SDS011;60886;55.034;73.150;2022-11-20T09:07:44;7.90;;;1.67;;
72761;SDS011;60886;55.034;73.150;2022-11-20T09:10:12;10.37;;;2.47;;
72761;SDS011;60886;55.034;73.150;2022-11-20T09:12:39;8.18;;;2.13;;
72761;SDS011;60886;55.034;73.150;2022-11-20T09:15:14;7.55;;;1.77;;
72761;SDS011;60886;55.034;73.150;2022-11-20T09:17:40;9.68;;;2.33;;
72761;SDS011;60886;55.034;73.150;2022-11-20T09:20:07;8.55;;;1.92;;
72761;SDS011;60886;55.034;73.150;2022-11-20T09:22:34;9.87;;;2.20;;
72761;SDS011;60886;55.034;73.150;2022-11-20T09:25:00;10.32;;;1.80;;
72761;SDS011;60886;55.034;73.150;2022-11-20T09:27:27;11.10;;;2.15;;
72761;SDS011;60886;55.034;73.150;2022-11-20T09:29:53;12.30;;;2.20;;
72761;SDS011;60886;55.034;73.150;2022-11-20T09:32:20;10.95;;;3.10;;
72761;SDS011;60886;55.034;73.150;2022-11-20T09:34:52;9.47;;;2.37;;
72761;SDS011;60886;55.034;73.150;2022-11-20T09:37:19;12.02;;;3.10;;
72761;SDS011;60886;55.034;73.150;2022-11-20T09:39:45;7.03;;;2.10;;
72761;SDS011;60886;55.034;73.150;2022-11-20T09:51:02;11.30;;;2.22;;
72761;SDS011;60886;55.034;73.150;2022-11-20T09:54:00;9.52;;;2.15;;
72761;SDS011;60886;55.034;73.150;2022-11-20T09:56:55;7.05;;;1.88;;
72761;SDS011;60886;55.034;73.150;2022-11-20T10:02:15;6.87;;;1.70;;
72761;SDS011;60886;55.034;73.150;2022-11-20T10:05:02;7.18;;;1.33;;
72761;SDS011;60886;55.034;73.150;2022-11-20T10:07:36;8.98;;;1.95;;
72761;SDS011;60886;55.034;73.150;2022-11-20T10:13:02;6.82;;;1.77;;
72761;SDS011;60886;55.034;73.150;2022-11-20T10:26:33;9.55;;;1.77;;
72761;SDS011;60886;55.034;73.150;2022-11-20T10:29:18;6.70;;;1.80;;
72761;SDS011;60886;55.034;73.150;2022-11-20T10:31:49;8.75;;;1.95;;
72761;SDS011;60886;55.034;73.150;2022-11-20T10:36:54;10.13;;;2.13;;
72761;SDS011;60886;55.034;73.150;2022-11-20T10:39:49;6.60;;;1.90;;
72761;SDS011;60886;55.034;73.150;2022-11-20T10:42:34;6.17;;;1.70;;
72761;SDS011;60886;55.034;73.150;2022-11-20T10:51:02;7.60;;;1.60;;
72761;SDS011;60886;55.034;73.150;2022-11-20T10:53:58;8.07;;;2.00;;
72761;SDS011;60886;55.034;73.150;2022-11-20T10:56:45;7.83;;;1.70;;
72761;SDS011;60886;55.034;73.150;2022-11-20T11:02:01;7.57;;;1.75;;
72761;SDS011;60886;55.034;73.150;2022-11-20T11:04:50;8.35;;;1.83;;
72761;SDS011;60886;55.034;73.150;2022-11-20T11:07:33;11.38;;;2.70;;
72761;SDS011;60886;55.034;73.150;2022-11-20T11:12:45;6.50;;;2.28;;
72761;SDS011;60886;55.034;73.150;2022-11-20T11:18:05;6.47;;;2.08;;
72761;SDS011;60886;55.034;73.150;2022-11-20T11:20:34;8.05;;;2.17;;
72761;SDS011;60886;55.034;73.150;2022-11-20T11:23:02;7.10;;;1.77;;
72761;SDS011;60886;55.034;73.150;2022-11-20T11:25:31;10.23;;;2.08;;
72761;SDS011;60886;55.034;73.150;2022-11-20T11:28:17;7.75;;;2.33;;
72761;SDS011;60886;55.034;73.150;2022-11-20T11:30:51;9.65;;;2.25;;
72761;SDS011;60886;55.034;73.150;2022-11-20T11:33:23;9.23;;;2.50;;
72761;SDS011;60886;55.034;73.150;2022-11-20T11:35:52;8.83;;;2.13;;
72761;SDS011;60886;55.034;73.150;2022-11-20T11:38:39;8.25;;;2.28;;
72761;SDS011;60886;55.034;73.150;2022-11-20T11:41:22;9.27;;;2.85;;
72761;SDS011;60886;55.034;73.150;2022-11-20T11:44:00;9.07;;;2.88;;
72761;SDS011;60886;55.034;73.150;2022-11-20T11:46:58;8.23;;;2.47;;
72761;SDS011;60886;55.034;73.150;2022-11-20T11:49:24;10.77;;;3.43;;
72761;SDS011;60886;55.034;73.150;2022-11-20T11:51:58;14.07;;;3.85;;
72761;SDS011;60886;55.034;73.150;2022-11-20T11:54:37;14.68;;;4.25;;
72761;SDS011;60886;55.034;73.150;2022-11-20T11:57:14;9.63;;;2.83;;
72761;SDS011;60886;55.034;73.150;2022-11-20T12:07:41;12.02;;;3.53;;
72761;SDS011;60886;55.034;73.150;2022-11-20T12:12:58;10.60;;;3.15;;
72761;SDS011;60886;55.034;73.150;2022-11-20T12:15:34;11.13;;;2.70;;
72761;SDS011;60886;55.034;73.150;2022-11-20T12:18:08;8.90;;;2.72;;
72761;SDS011;60886;55.034;73.150;2022-11-20T12:20:43;9.27;;;3.00;;
72761;SDS011;60886;55.034;73.150;2022-11-20T12:25:53;9.45;;;2.78;;
72761;SDS011;60886;55.034;73.150;2022-11-20T12:33:51;9.45;;;2.85;;
72761;SDS011;60886;55.034;73.150;2022-11-20T12:47:56;8.35;;;2.70;;
72761;SDS011;60886;55.034;73.150;2022-11-20T12:53:30;9.70;;;3.15;;
72761;SDS011;60886;55.034;73.150;2022-11-20T13:02:18;11.23;;;3.28;;
72761;SDS011;60886;55.034;73.150;2022-11-20T13:07:30;11.02;;;2.95;;
72761;SDS011;60886;55.034;73.150;2022-11-20T13:10:00;9.27;;;3.10;;
72761;SDS011;60886;55.034;73.150;2022-11-20T13:15:13;9.00;;;2.70;;
72761;SDS011;60886;55.034;73.150;2022-11-20T13:18:02;8.55;;;2.58;;
72761;SDS011;60886;55.034;73.150;2022-11-20T13:20:33;9.02;;;2.60;;
72761;SDS011;60886;55.034;73.150;2022-11-20T13:23:01;14.83;;;2.67;;
72761;SDS011;60886;55.034;73.150;2022-11-20T13:28:04;11.25;;;2.88;;
72761;SDS011;60886;55.034;73.150;2022-11-20T13:30:54;8.85;;;2.85;;
72761;SDS011;60886;55.034;73.150;2022-11-20T13:36:04;8.53;;;2.87;;
72761;SDS011;60886;55.034;73.150;2022-11-20T13:38:52;10.45;;;2.88;;
72761;SDS011;60886;55.034;73.150;2022-11-20T13:47:23;9.52;;;3.05;;
72761;SDS011;60886;55.034;73.150;2022-11-20T13:49:53;10.43;;;3.10;;
72761;SDS011;60886;55.034;73.150;2022-11-20T13:57:49;11.10;;;3.17;;
72761;SDS011;60886;55.034;73.150;2022-11-20T14:00:24;11.18;;;3.20;;
72761;SDS011;60886;55.034;73.150;2022-11-20T14:03:07;14.07;;;4.20;;
72761;SDS011;60886;55.034;73.150;2022-11-20T14:05:45;17.02;;;3.90;;
72761;SDS011;60886;55.034;73.150;2022-11-20T14:08:23;12.93;;;3.75;;
72761;SDS011;60886;55.034;73.150;2022-11-20T14:11:04;12.40;;;3.45;;
72761;SDS011;60886;55.034;73.150;2022-11-20T14:13:37;11.57;;;3.17;;
72761;SDS011;60886;55.034;73.150;2022-11-20T14:16:04;13.23;;;3.40;;
72761;SDS011;60886;55.034;73.150;2022-11-20T14:18:30;13.80;;;3.78;;
72761;SDS011;60886;55.034;73.150;2022-11-20T14:21:08;18.10;;;4.43;;
72761;SDS011;60886;55.034;73.150;2022-11-20T14:23:45;15.30;;;4.05;;
72761;SDS011;60886;55.034;73.150;2022-11-20T14:26:13;15.90;;;3.85;;
72761;SDS011;60886;55.034;73.150;2022-11-20T14:28:47;11.70;;;3.50;;
72761;SDS011;60886;55.034;73.150;2022-11-20T14:31:22;13.43;;;3.35;;
72761;SDS011;60886;55.034;73.150;2022-11-20T14:33:51;12.77;;;3.72;;
72761;SDS011;60886;55.034;73.150;2022-11-20T14:36:20;17.48;;;3.97;;
72761;SDS011;60886;55.034;73.150;2022-11-20T14:38:49;13.07;;;4.18;;
72761;SDS011;60886;55.034;73.150;2022-11-20T14:41:18;15.30;;;4.13;;
72761;SDS011;60886;55.034;73.150;2022-11-20T14:43:56;14.32;;;4.97;;
72761;SDS011;60886;55.034;73.150;2022-11-20T14:46:24;14.15;;;4.32;;
72761;SDS011;60886;55.034;73.150;2022-11-20T14:48:52;16.10;;;3.97;;
72761;SDS011;60886;55.034;73.150;2022-11-20T14:54:07;19.13;;;5.67;;
72761;SDS011;60886;55.034;73.150;2022-11-20T14:56:56;14.70;;;4.63;;
72761;SDS011;60886;55.034;73.150;2022-11-20T14:59:25;16.75;;;4.82;;
72761;SDS011;60886;55.034;73.150;2022-11-20T15:02:12;12.13;;;3.92;;
72761;SDS011;60886;55.034;73.150;2022-11-20T15:04:45;14.40;;;3.72;;
72761;SDS011;60886;55.034;73.150;2022-11-20T15:07:11;12.27;;;3.10;;
72761;SDS011;60886;55.034;73.150;2022-11-20T15:10:00;10.48;;;2.72;;
72761;SDS011;60886;55.034;73.150;2022-11-20T15:12:32;10.68;;;2.92;;
72761;SDS011;60886;55.034;73.150;2022-11-20T15:15:02;6.75;;;2.20;;
72761;SDS011;60886;55.034;73.150;2022-11-20T15:17:31;9.82;;;3.17;;
72761;SDS011;60886;55.034;73.150;2022-11-20T15:20:14;10.40;;;3.63;;
72761;SDS011;60886;55.034;73.150;2022-11-20T15:22:46;10.43;;;3.33;;
72761;SDS011;60886;55.034;73.150;2022-11-20T15:25:18;12.90;;;3.50;;
72761;SDS011;60886;55.034;73.150;2022-11-20T15:27:45;14.93;;;3.80;;
72761;SDS011;60886;55.034;73.150;2022-11-20T15:30:26;11.55;;;3.80;;
72761;SDS011;60886;55.034;73.150;2022-11-20T15:32:52;19.93;;;4.33;;
72761;SDS011;60886;55.034;73.150;2022-11-20T15:35:18;10.73;;;3.70;;
72761;SDS011;60886;55.034;73.150;2022-11-20T15:37:50;12.88;;;3.78;;
72761;SDS011;60886;55.034;73.150;2022-11-20T15:40:17;11.45;;;4.22;;
72761;SDS011;60886;55.034;73.150;2022-11-20T15:42:43;12.73;;;3.67;;
72761;SDS011;60886;55.034;73.150;2022-11-20T15:45:28;12.23;;;3.50;;
72761;SDS011;60886;55.034;73.150;2022-11-20T15:48:00;9.55;;;3.33;;
72761;SDS011;60886;55.034;73.150;2022-11-20T15:50:30;10.43;;;3.38;;
72761;SDS011;60886;55.034;73.150;2022-11-20T15:53:13;10.75;;;3.15;;
72761;SDS011;60886;55.034;73.150;2022-11-20T15:55:41;12.10;;;3.60;;
72761;SDS011;60886;55.034;73.150;2022-11-20T15:58:07;9.77;;;3.23;;
72761;SDS011;60886;55.034;73.150;2022-11-20T16:00:35;10.90;;;3.13;;
72761;SDS011;60886;55.034;73.150;2022-11-20T16:03:12;11.65;;;3.85;;
72761;SDS011;60886;55.034;73.150;2022-11-20T16:05:45;13.10;;;4.68;;
72761;SDS011;60886;55.034;73.150;2022-11-20T16:08:16;13.45;;;4.90;;
72761;SDS011;60886;55.034;73.150;2022-11-20T16:10:53;12.77;;;4.03;;
72761;SDS011;60886;55.034;73.150;2022-11-20T16:13:24;16.60;;;4.90;;
72761;SDS011;60886;55.034;73.150;2022-11-20T16:18:46;14.55;;;4.20;;
72761;SDS011;60886;55.034;73.150;2022-11-20T16:21:13;13.02;;;3.83;;
72761;SDS011;60886;55.034;73.150;2022-11-20T16:23:41;9.73;;;3.27;;
72761;SDS011;60886;55.034;73.150;2022-11-20T16:26:15;11.10;;;3.30;;
72761;SDS011;60886;55.034;73.150;2022-11-20T16:28:49;12.00;;;3.25;;
72761;SDS011;60886;55.034;73.150;2022-11-20T16:31:16;12.88;;;3.22;;
72761;SDS011;60886;55.034;73.150;2022-11-20T16:33:50;10.27;;;2.67;;
72761;SDS011;60886;55.034;73.150;2022-11-20T16:36:19;10.27;;;3.23;;
72761;SDS011;60886;55.034;73.150;2022-11-20T16:38:51;10.02;;;2.97;;
72761;SDS011;60886;55.034;73.150;2022-11-20T16:41:22;15.35;;;3.33;;
72761;SDS011;60886;55.034;73.150;2022-11-20T16:43:57;11.57;;;3.10;;
72761;SDS011;60886;55.034;73.150;2022-11-20T16:46:28;9.82;;;3.45;;
72761;SDS011;60886;55.034;73.150;2022-11-20T16:48:56;11.53;;;3.57;;
72761;SDS011;60886;55.034;73.150;2022-11-20T16:51:23;8.43;;;3.00;;
72761;SDS011;60886;55.034;73.150;2022-11-20T16:53:51;10.32;;;3.70;;
72761;SDS011;60886;55.034;73.150;2022-11-20T16:56:29;11.50;;;3.45;;